Coeur d'Alene, ID (83814)

8:22 AM PDT on October 24, 2014 (GMT -0700)
Downtown Coeur d'Alene | Change Station
CLOSE
Current Station
Personal Weather Station
Location: Coeur d'Alene, ID
Elevation: 2175 ft
Nearby Weather Stations

Elev 2175 ft 47.67 °N, 116.79 °W | Updated 2 minutes ago

Mostly Cloudy
Mostly Cloudy
46.0 °F
Feels Like 45 °F
N
3.1
Wind Variable Wind from East
Gusts 6.0 mph

Today
High -- | Low -- °F
--% Chance of Precip.
Yesterday
High -- | Low -- °F
Precip. -- in
7:19 AM 5:42 PM
New Moon, 1% visible
Pressure 30.08 in
Visibility 10.0 miles
Clouds Few 11000 ft
Windchill 45 °F
Dew Point 44 °F
Humidity 92%
Rainfall 0.00 in
Snow Depth Not available.
UV 0 out of 12
Pollen 1.20 out of 12
Air Quality Not available.
Flu Activity Sporadic
METAR KCOE 241515Z AUTO 00000KT 10SM FEW110 06/03 A3008 RMK AO1

More Conditions Fewer Conditions

Pressure 30.08 in
Visibility 10.0 miles
Clouds Few 11000 ft
Windchill 45 °F
Dew Point 44 °F
Humidity 92%
Rainfall 0.00 in
Snow Depth Not available.
UV 0 out of 12
Pollen 1.20 out of 12
Air Quality Not available.
Flu Activity Sporadic
METAR KCOE 241515Z AUTO 00000KT 10SM FEW110 06/03 A3008 RMK AO1

More Conditions Fewer Conditions

10-Day Weather Forecast

Almanac

Astronomy

Oct. 24, 2014 Rise Set
Actual Time 7:19 AM PDT 5:42 PM PDT
Civil Twilight 6:47 AM PDT 6:14 PM PDT
Nautical Twilight 6:11 AM PDT 6:50 PM PDT
Astronomical Twilight 5:35 AM PDT 7:25 PM PDT
Moon 8:05 AM PDT 6:21 PM PDT
Length of Visible Light 11h 26m
Length of Day
10h 22m
Tomorrow will be 3m 13s shorter.
New Moon, 1% of the Moon is Illuminated
Today
New Moon
Oct 30
First Quarter
Nov 6
Full
Nov 14
Last Quarter
Nov 22
New

Today's Extremes

State Highs State Lows

Community

WunderPhotos

Upload Photos

1,764,588 photos uploaded!

WunderBlogs® & News

By Dr. Jeff Masters
Director of Meteorology, Weather Underground
By Kari Strenfel
Meteorologist, Weather Underground
By Christopher C. Burt
Weather Historian, Weather Underground
October 24, 2014
October 24, 2014
October 24, 2014

Nearby

Snow Depth

Station Depth Elevation
Mosquito Ridge 0 in 5200 ft
Mica Creek 2 in 4750 ft
Humboldt Gulch 1 in 4250 ft
Schweitzer Basin 1 in 6090 ft
Lookout 0 in 5140 ft

Earthquake Activity

City Distance Mag. Time & Date
No recent earthquake activity has been reported nearby.
Minimum magnitude displayed is 2.5.

Coastal Water Temperatures

Place Temperature
No Stations Reporting

Nearby Weather Stations